createdAt,value
2023-07-18T00:00:26.814Z,28.30
2023-07-18T00:02:28.845Z,28.30
2023-07-18T00:04:30.624Z,28.30
2023-07-18T00:06:32.569Z,28.30
2023-07-18T00:08:34.362Z,28.30
2023-07-18T00:10:36.272Z,28.30
2023-07-18T00:12:38.732Z,28.30
2023-07-18T00:14:40.605Z,28.30
2023-07-18T00:16:42.894Z,28.30
2023-07-18T00:18:44.717Z,28.30
2023-07-18T00:20:46.596Z,28.30
2023-07-18T00:22:48.576Z,28.30
2023-07-18T00:24:50.407Z,28.30
2023-07-18T00:26:52.251Z,28.30
2023-07-18T00:28:54.048Z,28.30
2023-07-18T00:30:55.943Z,28.30
2023-07-18T00:32:57.945Z,28.30
2023-07-18T00:34:59.971Z,28.30
2023-07-18T00:37:01.798Z,28.30
2023-07-18T00:39:03.767Z,28.30
2023-07-18T00:41:06.023Z,28.30
2023-07-18T00:43:13.959Z,28.30
2023-07-18T00:45:16.739Z,28.30
2023-07-18T00:47:19.048Z,28.30
2023-07-18T00:49:20.805Z,28.30
2023-07-18T00:51:22.966Z,28.20
2023-07-18T00:53:24.972Z,28.20
2023-07-18T00:55:26.965Z,28.20
2023-07-18T00:57:28.976Z,28.20
2023-07-18T00:59:30.897Z,28.20
2023-07-18T01:01:32.720Z,28.20
2023-07-18T01:03:34.844Z,28.20
2023-07-18T01:05:36.758Z,28.20
2023-07-18T01:07:38.666Z,28.20
2023-07-18T01:09:40.547Z,28.20
2023-07-18T01:11:42.351Z,28.20
2023-07-18T01:13:44.108Z,28.20
2023-07-18T01:15:46.810Z,28.20
2023-07-18T01:17:49.203Z,28.20
2023-07-18T01:19:51.088Z,28.20
2023-07-18T01:21:52.888Z,28.20
2023-07-18T01:23:54.797Z,28.20
2023-07-18T01:25:56.725Z,28.20
2023-07-18T01:27:58.735Z,28.20
2023-07-18T01:30:00.986Z,28.20
2023-07-18T01:32:02.944Z,28.20
2023-07-18T01:34:04.720Z,28.20
2023-07-18T01:36:06.553Z,28.20
2023-07-18T01:38:08.362Z,28.20
2023-07-18T01:40:10.281Z,28.20
2023-07-18T01:42:12.059Z,28.20
2023-07-18T01:44:13.937Z,28.20
2023-07-18T01:46:15.679Z,28.20
2023-07-18T01:48:17.506Z,28.20
2023-07-18T01:50:19.632Z,28.20
2023-07-18T01:52:21.522Z,28.10
2023-07-18T01:54:23.268Z,28.10
2023-07-18T01:56:25.105Z,28.10
2023-07-18T01:58:26.925Z,28.10
2023-07-18T02:00:28.830Z,28.10
2023-07-18T02:02:30.665Z,28.10
2023-07-18T02:04:32.629Z,28.10
2023-07-18T02:06:34.398Z,28.10
2023-07-18T02:08:36.264Z,28.10
2023-07-18T02:10:38.091Z,28.10
2023-07-18T02:12:39.954Z,28.10
2023-07-18T02:14:42.943Z,28.10
2023-07-18T02:16:44.863Z,28.10
2023-07-18T02:18:46.660Z,28.10
2023-07-18T02:20:48.568Z,28.10
2023-07-18T02:22:50.437Z,28.10
2023-07-18T02:24:52.310Z,28.10
2023-07-18T02:26:54.219Z,28.10
2023-07-18T02:28:56.131Z,28.10
2023-07-18T02:31:00.488Z,28.10
2023-07-18T02:33:02.331Z,28.10
2023-07-18T02:35:06.091Z,28.10
2023-07-18T02:37:07.930Z,28.10
2023-07-18T02:39:09.690Z,28.10
2023-07-18T02:41:11.588Z,28.10
2023-07-18T02:43:13.375Z,28.10
2023-07-18T02:45:15.319Z,28.10
2023-07-18T02:47:17.159Z,28.10
2023-07-18T02:49:18.961Z,28.10
2023-07-18T02:51:21.016Z,28.10
2023-07-18T02:53:23.275Z,28.00
2023-07-18T02:55:25.251Z,28.00
2023-07-18T02:57:27.150Z,28.00
2023-07-18T02:59:28.952Z,28.00
2023-07-18T03:01:30.806Z,28.00
2023-07-18T03:03:32.717Z,28.00
2023-07-18T03:05:34.691Z,28.00
2023-07-18T03:07:36.473Z,28.00
2023-07-18T03:09:38.472Z,28.00
2023-07-18T03:11:40.280Z,28.00
2023-07-18T03:13:42.457Z,28.00
2023-07-18T03:15:44.251Z,28.00
2023-07-18T03:17:46.157Z,28.00
2023-07-18T03:19:49.233Z,28.00
2023-07-18T03:21:51.090Z,28.00
2023-07-18T03:23:53.296Z,28.00
2023-07-18T03:25:55.127Z,28.00
2023-07-18T03:27:58.718Z,28.00
2023-07-18T03:30:00.688Z,28.00
2023-07-18T03:32:05.157Z,28.00
2023-07-18T03:34:07.309Z,28.00
2023-07-18T03:36:09.145Z,28.00
2023-07-18T03:38:10.978Z,28.00
2023-07-18T03:40:13.160Z,28.00
2023-07-18T03:42:15.119Z,28.00
2023-07-18T03:44:16.911Z,28.00
2023-07-18T03:46:18.819Z,28.00
2023-07-18T03:48:20.756Z,28.00
2023-07-18T03:50:22.636Z,28.00
2023-07-18T03:52:24.396Z,28.00
2023-07-18T03:54:26.278Z,28.00
2023-07-18T03:56:28.478Z,28.00
2023-07-18T03:58:30.320Z,27.90
2023-07-18T04:00:32.137Z,28.00
2023-07-18T04:02:34.078Z,27.90
2023-07-18T04:04:35.869Z,28.00
2023-07-18T04:06:37.718Z,27.90
2023-07-18T04:08:42.352Z,27.90
2023-07-18T04:10:44.771Z,27.90
2023-07-18T04:12:46.613Z,27.90
2023-07-18T04:14:48.490Z,27.90
2023-07-18T04:16:50.347Z,27.90
2023-07-18T04:18:52.185Z,27.90
2023-07-18T04:21:00.665Z,27.90
2023-07-18T04:23:02.509Z,27.90
2023-07-18T04:25:04.513Z,27.90
2023-07-18T04:27:06.347Z,27.90
2023-07-18T04:29:08.131Z,27.90
2023-07-18T04:31:10.038Z,27.90
2023-07-18T04:33:11.876Z,27.90
2023-07-18T04:35:13.707Z,27.90
2023-07-18T04:37:15.645Z,27.90
2023-07-18T04:39:17.434Z,27.90
2023-07-18T04:41:19.419Z,27.90
2023-07-18T04:43:21.449Z,27.90
2023-07-18T04:45:23.230Z,27.90
2023-07-18T04:47:25.201Z,27.90
2023-07-18T04:49:27.056Z,27.90
2023-07-18T04:51:28.900Z,27.90
2023-07-18T04:53:31.232Z,27.90
2023-07-18T04:55:33.095Z,27.90
2023-07-18T04:57:34.876Z,27.90
2023-07-18T04:59:36.720Z,27.90
2023-07-18T05:01:40.901Z,27.90
2023-07-18T05:03:56.706Z,27.90
2023-07-18T05:05:59.874Z,27.90
2023-07-18T05:08:01.892Z,27.90
2023-07-18T05:10:03.863Z,27.90
2023-07-18T05:12:06.079Z,28.00
2023-07-18T05:14:07.893Z,27.90
2023-07-18T05:16:09.941Z,28.00
2023-07-18T05:18:11.773Z,28.00
2023-07-18T05:20:14.134Z,27.90
2023-07-18T05:22:16.052Z,28.00
2023-07-18T05:24:17.952Z,28.00
2023-07-18T05:26:19.781Z,27.90
2023-07-18T05:28:21.620Z,28.00
2023-07-18T05:30:23.436Z,28.00
2023-07-18T05:32:25.365Z,28.00
2023-07-18T05:34:30.136Z,28.00
2023-07-18T05:36:32.484Z,28.00
2023-07-18T05:38:34.295Z,28.00
2023-07-18T05:40:36.137Z,28.00
2023-07-18T05:42:42.163Z,28.00
2023-07-18T05:44:44.128Z,28.00
2023-07-18T05:46:45.955Z,28.00
2023-07-18T05:48:47.836Z,28.00
2023-07-18T05:50:49.756Z,28.00
2023-07-18T05:52:51.595Z,27.90
2023-07-18T05:54:53.435Z,28.00
2023-07-18T05:56:55.338Z,28.00
2023-07-18T05:58:57.122Z,28.00
2023-07-18T06:00:59.021Z,28.00
2023-07-18T06:03:00.950Z,28.00
2023-07-18T06:05:02.977Z,28.00
2023-07-18T06:07:05.203Z,28.00
2023-07-18T06:09:07.098Z,28.00
2023-07-18T06:11:08.863Z,28.00
2023-07-18T06:13:11.804Z,27.90
2023-07-18T06:15:13.602Z,28.00
2023-07-18T06:17:15.555Z,28.00
2023-07-18T06:19:17.405Z,27.90
2023-07-18T06:21:19.900Z,28.00
2023-07-18T06:23:21.873Z,28.00
2023-07-18T06:25:23.752Z,28.00
2023-07-18T06:27:25.643Z,28.00
2023-07-18T06:29:27.501Z,28.00
2023-07-18T06:31:29.396Z,28.00
2023-07-18T06:33:31.294Z,28.00
2023-07-18T06:35:33.090Z,28.00
2023-07-18T06:37:34.893Z,28.00
2023-07-18T06:39:36.654Z,28.00
2023-07-18T06:41:38.582Z,28.00
2023-07-18T06:43:40.519Z,28.00
2023-07-18T06:45:45.999Z,28.00
2023-07-18T06:47:47.874Z,28.00
2023-07-18T06:49:49.748Z,28.00
2023-07-18T06:51:51.534Z,28.00
2023-07-18T06:53:53.387Z,28.00
2023-07-18T06:55:55.143Z,28.00
2023-07-18T06:57:57.004Z,28.00
2023-07-18T06:59:58.870Z,28.00
2023-07-18T07:02:00.672Z,28.00
2023-07-18T07:04:02.892Z,28.00
2023-07-18T07:06:09.786Z,28.00
2023-07-18T07:08:11.620Z,28.00
2023-07-18T07:10:14.569Z,28.00
2023-07-18T07:12:26.596Z,28.00
2023-07-18T07:14:37.801Z,28.10
2023-07-18T07:16:39.989Z,28.10
2023-07-18T07:18:41.989Z,28.10
2023-07-18T07:20:43.862Z,28.10
2023-07-18T07:22:45.812Z,28.10
2023-07-18T07:24:48.027Z,28.10
2023-07-18T07:26:49.918Z,28.10
2023-07-18T07:28:51.814Z,28.10
2023-07-18T07:30:53.950Z,28.10
2023-07-18T07:32:55.955Z,28.10
2023-07-18T07:34:58.024Z,28.10
2023-07-18T07:36:59.865Z,28.10
2023-07-18T07:39:01.746Z,28.10
2023-07-18T07:41:04.760Z,28.10
2023-07-18T07:43:06.718Z,28.10
2023-07-18T07:45:08.948Z,28.10
2023-07-18T07:47:10.832Z,28.10
2023-07-18T07:49:12.636Z,28.10
2023-07-18T07:51:14.947Z,28.10
2023-07-18T07:53:16.764Z,28.10
2023-07-18T07:55:18.617Z,28.10
2023-07-18T07:57:20.386Z,28.10
2023-07-18T07:59:22.262Z,28.10
2023-07-18T08:01:24.147Z,28.10
2023-07-18T08:03:26.039Z,28.10
2023-07-18T08:05:27.895Z,28.10
2023-07-18T08:07:30.125Z,28.10
2023-07-18T08:09:32.030Z,28.10
2023-07-18T08:11:33.854Z,28.10
2023-07-18T08:13:35.615Z,28.10
2023-07-18T08:15:37.474Z,28.00
2023-07-18T08:17:39.359Z,28.10
2023-07-18T08:19:41.268Z,28.10
2023-07-18T08:21:43.014Z,28.10
2023-07-18T08:23:44.872Z,28.10
2023-07-18T08:25:46.637Z,28.10
2023-07-18T08:27:48.482Z,28.10
2023-07-18T08:29:50.346Z,28.10
2023-07-18T08:31:53.084Z,28.20
2023-07-18T08:33:54.861Z,28.20
2023-07-18T08:37:58.839Z,28.10
2023-07-18T08:48:09.556Z,28.20
2023-07-18T08:50:11.739Z,28.30
2023-07-18T08:54:15.734Z,28.20
2023-07-18T08:56:17.564Z,28.20
2023-07-18T08:58:19.928Z,28.20
2023-07-18T09:00:21.929Z,28.20
2023-07-18T09:02:23.895Z,28.30
2023-07-18T09:04:25.876Z,28.20
2023-07-18T09:06:28.968Z,28.30
2023-07-18T09:08:42.762Z,28.20
2023-07-18T09:10:44.596Z,28.30
2023-07-18T09:12:46.438Z,28.30
2023-07-18T09:14:48.265Z,28.30
2023-07-18T09:16:50.115Z,28.30
2023-07-18T09:18:52.561Z,28.30
2023-07-18T09:20:55.914Z,28.30
2023-07-18T09:22:59.053Z,28.30
2023-07-18T09:25:00.916Z,28.30
2023-07-18T09:27:06.519Z,28.30
2023-07-18T09:29:11.331Z,28.30
2023-07-18T09:31:17.039Z,28.30
2023-07-18T09:33:24.838Z,28.30
2023-07-18T09:35:29.547Z,28.30
2023-07-18T09:37:32.436Z,28.30
2023-07-18T09:39:36.018Z,28.30
2023-07-18T09:41:38.251Z,28.30
2023-07-18T09:43:42.094Z,28.30
2023-07-18T09:45:44.076Z,28.40
2023-07-18T09:47:45.994Z,28.40
2023-07-18T09:49:47.941Z,28.40
2023-07-18T09:51:57.831Z,28.40
2023-07-18T09:54:00.252Z,28.40
2023-07-18T09:56:02.083Z,28.40
2023-07-18T09:58:03.985Z,28.40
2023-07-18T10:00:06.232Z,28.40
2023-07-18T10:02:10.628Z,28.40
2023-07-18T10:04:13.564Z,28.40
2023-07-18T10:06:16.163Z,28.40
2023-07-18T10:08:18.620Z,28.50
2023-07-18T10:10:20.649Z,28.50
2023-07-18T10:12:22.443Z,28.50
2023-07-18T10:14:27.887Z,28.40
2023-07-18T10:16:29.775Z,28.50
2023-07-18T10:18:43.562Z,28.50
2023-07-18T10:20:57.197Z,28.50
2023-07-18T10:23:00.259Z,28.50
2023-07-18T10:25:07.933Z,28.50
2023-07-18T10:27:10.315Z,28.50
2023-07-18T10:29:12.120Z,28.50
2023-07-18T10:31:26.960Z,28.50
2023-07-18T10:33:30.264Z,28.50
2023-07-18T10:35:32.122Z,28.50
2023-07-18T10:37:33.981Z,28.50
2023-07-18T10:39:38.859Z,28.50
2023-07-18T10:41:44.031Z,28.50
2023-07-18T10:43:48.751Z,28.50
2023-07-18T10:45:50.589Z,28.50
2023-07-18T10:47:52.483Z,28.50
2023-07-18T10:49:54.837Z,28.50
2023-07-18T10:51:56.689Z,28.50
2023-07-18T10:53:58.456Z,28.50
2023-07-18T10:56:01.107Z,28.60
2023-07-18T10:58:02.921Z,28.60
2023-07-18T11:00:06.375Z,28.60
2023-07-18T11:02:08.196Z,28.60
2023-07-18T11:04:10.066Z,28.60
2023-07-18T11:06:12.279Z,28.60
2023-07-18T11:08:23.155Z,28.60
2023-07-18T11:10:25.010Z,28.60
2023-07-18T11:12:26.867Z,28.60
2023-07-18T11:14:48.874Z,28.60
2023-07-18T11:16:50.797Z,28.60
2023-07-18T11:18:52.603Z,28.60
2023-07-18T11:20:54.657Z,28.60
2023-07-18T11:22:57.112Z,28.60
2023-07-18T11:24:59.114Z,28.60
2023-07-18T11:27:13.051Z,28.60
2023-07-18T11:29:14.873Z,28.60
2023-07-18T11:31:40.302Z,28.60
2023-07-18T11:33:48.244Z,28.60
2023-07-18T11:35:50.069Z,28.70
2023-07-18T11:37:52.946Z,28.70
2023-07-18T11:39:57.361Z,28.70
2023-07-18T11:42:07.907Z,28.70
2023-07-18T11:44:10.672Z,28.70
2023-07-18T11:46:12.517Z,28.70
2023-07-18T11:48:14.731Z,28.80
2023-07-18T11:50:16.712Z,28.80
2023-07-18T11:52:19.229Z,28.80
2023-07-18T11:54:27.065Z,28.90
2023-07-18T11:56:29.692Z,28.90
2023-07-18T11:58:31.523Z,29.00
2023-07-18T12:00:35.566Z,29.00
2023-07-18T12:02:37.753Z,29.10
2023-07-18T12:04:39.653Z,29.10
2023-07-18T12:06:41.730Z,29.20
2023-07-18T12:08:43.500Z,29.20
2023-07-18T12:10:52.994Z,29.30
2023-07-18T12:13:01.951Z,29.30
2023-07-18T12:15:04.026Z,29.40
2023-07-18T12:17:06.034Z,29.40
2023-07-18T12:19:07.929Z,29.50
2023-07-18T12:21:09.723Z,29.50
2023-07-18T12:23:11.600Z,29.50
2023-07-18T12:25:13.461Z,29.60
2023-07-18T12:27:15.279Z,29.60
2023-07-18T12:29:17.206Z,29.70
2023-07-18T12:31:19.746Z,29.70
2023-07-18T12:33:21.921Z,29.70
2023-07-18T12:35:23.771Z,29.70
2023-07-18T12:37:25.640Z,29.80
2023-07-18T12:39:27.491Z,29.80
2023-07-18T12:41:29.267Z,29.80
2023-07-18T12:43:31.147Z,29.80
2023-07-18T12:45:32.972Z,29.80
2023-07-18T12:47:34.827Z,29.80
2023-07-18T12:51:42.127Z,29.80
2023-07-18T12:53:43.869Z,29.80
2023-07-18T12:55:45.754Z,29.80
2023-07-18T12:57:47.527Z,29.80
2023-07-18T12:59:49.388Z,29.80
2023-07-18T13:01:51.257Z,29.80
2023-07-18T13:03:53.281Z,29.80
2023-07-18T13:05:55.213Z,29.70
2023-07-18T13:07:57.079Z,29.70
2023-07-18T13:12:01.053Z,29.80
2023-07-18T13:14:02.830Z,29.80
2023-07-18T13:16:04.863Z,29.80
2023-07-18T13:18:06.710Z,29.80
2023-07-18T13:20:09.438Z,29.80
2023-07-18T13:22:12.881Z,29.80
2023-07-18T13:24:15.667Z,29.80
2023-07-18T13:26:19.572Z,29.80
2023-07-18T13:28:21.674Z,29.80
2023-07-18T13:30:25.733Z,29.80
2023-07-18T13:32:27.653Z,29.80
2023-07-18T13:34:29.460Z,29.80
2023-07-18T13:36:31.617Z,29.80
2023-07-18T13:38:33.428Z,29.80
2023-07-18T13:40:36.500Z,29.80
2023-07-18T13:42:38.464Z,29.70
2023-07-18T13:44:40.303Z,29.70
2023-07-18T13:46:42.134Z,29.70
2023-07-18T13:48:46.220Z,29.70
2023-07-18T13:50:48.252Z,29.70
2023-07-18T13:52:50.156Z,29.70
2023-07-18T13:54:52.673Z,29.60
2023-07-18T13:56:54.536Z,29.50
2023-07-18T13:58:56.315Z,29.50
2023-07-18T14:00:58.327Z,29.40
2023-07-18T14:03:00.305Z,29.40
2023-07-18T14:05:02.233Z,29.40
2023-07-18T14:07:04.174Z,29.40
2023-07-18T14:09:05.978Z,29.40
2023-07-18T14:11:07.753Z,29.30
2023-07-18T14:13:09.660Z,29.30
2023-07-18T14:15:11.551Z,29.30
2023-07-18T14:17:13.423Z,29.30
2023-07-18T14:19:15.262Z,29.30
2023-07-18T14:21:17.133Z,29.30
2023-07-18T14:23:19.046Z,29.30
2023-07-18T14:25:21.438Z,29.30
2023-07-18T14:27:23.304Z,29.20
2023-07-18T14:29:25.150Z,29.20
2023-07-18T14:31:27.043Z,29.20
2023-07-18T14:33:28.911Z,29.20
2023-07-18T14:35:30.712Z,29.20
2023-07-18T14:37:32.522Z,29.20
2023-07-18T14:39:37.888Z,29.20
2023-07-18T14:41:39.785Z,29.20
2023-07-18T14:43:41.552Z,29.10
2023-07-18T14:45:43.454Z,29.20
2023-07-18T14:47:45.307Z,29.10
2023-07-18T14:49:47.171Z,29.10
2023-07-18T14:51:51.659Z,29.00
2023-07-18T14:53:53.862Z,29.10
2023-07-18T14:55:55.622Z,29.10
2023-07-18T14:57:57.443Z,29.10
2023-07-18T14:59:59.294Z,29.10
2023-07-18T15:02:01.139Z,29.10
2023-07-18T15:04:02.976Z,29.00
2023-07-18T15:06:04.954Z,29.00
2023-07-18T15:08:06.752Z,29.00
2023-07-18T15:10:08.936Z,29.00
2023-07-18T15:12:10.769Z,29.00
2023-07-18T15:14:12.614Z,29.00
2023-07-18T15:16:14.495Z,28.90
2023-07-18T15:18:16.445Z,28.90
2023-07-18T15:20:18.424Z,28.90
2023-07-18T15:22:20.325Z,28.90
2023-07-18T15:24:22.119Z,28.90
2023-07-18T15:26:23.992Z,28.90
2023-07-18T15:28:25.807Z,29.00
2023-07-18T15:30:27.698Z,29.00
2023-07-18T15:32:29.502Z,29.00
2023-07-18T15:34:31.386Z,29.00
2023-07-18T15:36:33.175Z,29.00
2023-07-18T15:38:35.005Z,29.00
2023-07-18T15:40:36.808Z,29.00
2023-07-18T15:42:39.726Z,29.00
2023-07-18T15:44:41.788Z,29.00
2023-07-18T15:46:43.966Z,29.10
2023-07-18T15:48:45.761Z,29.10
2023-07-18T15:50:47.691Z,29.00
2023-07-18T15:52:49.458Z,29.00
2023-07-18T15:54:51.364Z,29.00
2023-07-18T15:56:53.154Z,29.00
2023-07-18T15:58:55.013Z,29.00
2023-07-18T16:00:57.575Z,29.00
2023-07-18T16:02:59.647Z,29.00
2023-07-18T16:05:01.498Z,29.00
2023-07-18T16:07:03.445Z,29.00
2023-07-18T16:09:05.204Z,29.00
2023-07-18T16:11:07.032Z,29.00
2023-07-18T16:13:08.849Z,29.00
2023-07-18T16:15:10.900Z,29.00
2023-07-18T16:17:12.928Z,29.00
2023-07-18T16:19:14.885Z,29.00
2023-07-18T16:21:16.646Z,29.00
2023-07-18T16:23:18.526Z,29.00
2023-07-18T16:25:20.407Z,29.00
2023-07-18T16:27:22.253Z,29.00
2023-07-18T16:29:24.098Z,29.10
2023-07-18T16:33:28.173Z,29.00
2023-07-18T16:35:30.024Z,29.10
2023-07-18T16:37:31.833Z,29.10
2023-07-18T16:39:33.683Z,29.10
2023-07-18T16:41:37.356Z,29.00
2023-07-18T16:43:39.215Z,29.00
2023-07-18T16:47:43.196Z,29.10
2023-07-18T16:51:47.234Z,29.10
2023-07-18T16:57:53.696Z,29.00
2023-07-18T17:01:57.658Z,28.90
2023-07-18T17:03:59.471Z,29.00
2023-07-18T17:06:01.533Z,29.10
2023-07-18T17:10:08.352Z,29.00
2023-07-18T17:12:10.261Z,29.00
2023-07-18T17:14:12.035Z,29.10
2023-07-18T17:16:13.888Z,29.00
2023-07-18T17:18:15.645Z,29.00
2023-07-18T17:22:19.812Z,29.00
2023-07-18T17:24:21.645Z,29.00
2023-07-18T17:26:23.591Z,28.90
2023-07-18T17:28:25.608Z,28.90
2023-07-18T17:30:28.134Z,28.90
2023-07-18T17:32:30.282Z,28.90
2023-07-18T17:34:32.070Z,28.90
2023-07-18T17:36:33.950Z,28.90
2023-07-18T17:38:35.764Z,28.90
2023-07-18T17:40:37.623Z,28.90
2023-07-18T17:42:41.175Z,28.90
2023-07-18T17:44:43.062Z,28.90
2023-07-18T17:46:44.902Z,28.90
2023-07-18T17:50:48.933Z,28.90
2023-07-18T17:52:50.856Z,28.90
2023-07-18T17:54:52.698Z,28.90
2023-07-18T17:56:54.583Z,28.90
2023-07-18T17:58:56.381Z,28.90
2023-07-18T18:00:58.344Z,28.90
2023-07-18T18:03:00.329Z,28.90
2023-07-18T18:05:02.301Z,28.90
2023-07-18T18:07:04.456Z,28.90
2023-07-18T18:09:06.304Z,28.90
2023-07-18T18:11:08.084Z,28.90
2023-07-18T18:13:09.929Z,28.90
2023-07-18T18:15:11.723Z,28.90
2023-07-18T18:17:13.570Z,28.90
2023-07-18T18:19:15.319Z,28.90
2023-07-18T18:21:17.218Z,28.90
2023-07-18T18:23:31.839Z,28.90
2023-07-18T18:25:39.990Z,28.90
2023-07-18T18:27:43.095Z,28.90
2023-07-18T18:29:44.959Z,28.90
2023-07-18T18:31:46.716Z,28.90
2023-07-18T18:33:48.602Z,28.90
2023-07-18T18:35:50.424Z,28.90
2023-07-18T18:39:54.465Z,28.90
2023-07-18T18:41:56.272Z,28.90
2023-07-18T18:43:58.076Z,28.80
2023-07-18T18:45:59.975Z,28.90
2023-07-18T18:48:01.798Z,28.90
2023-07-18T18:50:03.852Z,28.90
2023-07-18T18:52:05.743Z,28.90
2023-07-18T18:54:07.622Z,28.90
2023-07-18T18:56:09.402Z,28.90
2023-07-18T18:58:13.985Z,28.80
2023-07-18T19:00:16.388Z,28.90
2023-07-18T19:02:18.384Z,28.90
2023-07-18T19:04:20.167Z,28.90
2023-07-18T19:06:22.093Z,28.90
2023-07-18T19:08:23.881Z,28.90
2023-07-18T19:10:27.351Z,28.90
2023-07-18T19:12:29.267Z,28.80
2023-07-18T19:14:31.071Z,28.80
2023-07-18T19:16:39.695Z,28.80
2023-07-18T19:18:42.540Z,28.80
2023-07-18T19:20:44.341Z,28.80
2023-07-18T19:22:46.316Z,28.80
2023-07-18T19:24:48.189Z,28.80
2023-07-18T19:26:50.278Z,28.80
2023-07-18T19:28:52.157Z,28.80
2023-07-18T19:30:54.067Z,28.80
2023-07-18T19:32:55.935Z,28.80
2023-07-18T19:34:57.863Z,28.80
2023-07-18T19:39:01.972Z,28.80
2023-07-18T19:41:03.807Z,28.80
2023-07-18T19:43:05.669Z,28.80
2023-07-18T19:45:07.784Z,28.80
2023-07-18T19:47:09.603Z,28.80
2023-07-18T19:49:11.401Z,28.80
2023-07-18T19:51:13.208Z,28.80
2023-07-18T19:53:14.984Z,28.80
2023-07-18T19:55:16.882Z,28.80
2023-07-18T19:57:18.650Z,28.80
2023-07-18T19:59:20.636Z,28.80
2023-07-18T20:01:22.718Z,28.80
2023-07-18T20:03:24.906Z,28.80
2023-07-18T20:05:26.784Z,28.80
2023-07-18T20:07:28.666Z,28.80
2023-07-18T20:09:30.460Z,28.80
2023-07-18T20:11:32.253Z,28.80
2023-07-18T20:13:34.095Z,28.80
2023-07-18T20:15:36.098Z,28.80
2023-07-18T20:17:37.918Z,28.70
2023-07-18T20:19:39.851Z,28.80
2023-07-18T20:21:41.628Z,28.70
2023-07-18T20:23:43.480Z,28.70
2023-07-18T20:25:45.263Z,28.70
2023-07-18T20:29:49.247Z,28.70
2023-07-18T20:31:51.127Z,28.70
2023-07-18T20:35:55.224Z,26.90
2023-07-18T20:37:58.766Z,28.70
2023-07-18T20:40:00.744Z,28.70
2023-07-18T20:42:02.565Z,28.60
2023-07-18T20:46:06.588Z,28.80
2023-07-18T20:48:08.433Z,28.70
2023-07-18T20:50:10.468Z,28.70
2023-07-18T20:52:12.363Z,28.70
2023-07-18T20:54:14.155Z,28.60
2023-07-18T20:56:16.098Z,28.60
2023-07-18T20:58:17.872Z,28.70
2023-07-18T21:00:19.722Z,28.70
2023-07-18T21:02:21.517Z,28.70
2023-07-18T21:04:23.363Z,28.70
2023-07-18T21:06:25.237Z,28.70
2023-07-18T21:08:27.160Z,28.60
2023-07-18T21:10:28.971Z,28.60
2023-07-18T21:12:30.844Z,28.60
2023-07-18T21:14:32.644Z,28.60
2023-07-18T21:16:34.599Z,28.60
2023-07-18T21:18:36.360Z,28.60
2023-07-18T21:20:38.348Z,28.60
2023-07-18T21:22:40.190Z,28.60
2023-07-18T21:24:42.016Z,28.60
2023-07-18T21:26:43.805Z,28.60
2023-07-18T21:29:01.952Z,28.70
2023-07-18T21:31:06.215Z,28.60
2023-07-18T21:33:08.198Z,28.60
2023-07-18T21:35:10.014Z,28.60
2023-07-18T21:37:11.974Z,28.70
2023-07-18T21:39:13.771Z,28.60
2023-07-18T21:43:17.717Z,28.60
2023-07-18T21:45:19.864Z,28.60
2023-07-18T21:47:21.665Z,28.50
2023-07-18T21:49:23.477Z,28.60
2023-07-18T21:51:25.291Z,28.70
2023-07-18T21:53:27.135Z,28.50
2023-07-18T21:55:28.983Z,28.70
2023-07-18T21:57:30.857Z,28.50
2023-07-18T21:59:32.609Z,28.50
2023-07-18T22:01:34.526Z,28.70
2023-07-18T22:03:36.376Z,28.50
2023-07-18T22:05:38.315Z,28.60
2023-07-18T22:07:40.082Z,28.70
2023-07-18T22:09:41.945Z,28.50
2023-07-18T22:11:43.694Z,28.50
2023-07-18T22:13:45.566Z,28.60
2023-07-18T22:15:47.474Z,28.60
2023-07-18T22:17:49.371Z,28.50
2023-07-18T22:19:51.152Z,28.60
2023-07-18T22:21:53.047Z,28.60
2023-07-18T22:23:54.805Z,28.50
2023-07-18T22:26:12.906Z,28.60
2023-07-18T22:28:17.043Z,28.50
2023-07-18T22:30:18.976Z,28.60
2023-07-18T22:32:20.824Z,28.50
2023-07-18T22:34:22.719Z,28.50
2023-07-18T22:36:24.531Z,28.60
2023-07-18T22:38:26.345Z,28.50
2023-07-18T22:40:28.192Z,28.50
2023-07-18T22:42:30.125Z,28.50
2023-07-18T22:44:31.879Z,28.60
2023-07-18T22:46:33.795Z,28.50
2023-07-18T22:48:35.636Z,28.40
2023-07-18T22:50:37.518Z,28.40
2023-07-18T22:52:39.354Z,28.50
2023-07-18T22:54:41.246Z,28.50
2023-07-18T22:56:43.035Z,28.50
2023-07-18T22:58:44.926Z,28.50
2023-07-18T23:00:46.888Z,28.50
2023-07-18T23:02:48.961Z,28.50
2023-07-18T23:04:50.802Z,28.50
2023-07-18T23:06:52.712Z,28.50
2023-07-18T23:08:54.495Z,28.50
2023-07-18T23:10:56.416Z,28.50
2023-07-18T23:12:58.287Z,28.50
2023-07-18T23:15:00.149Z,28.50
2023-07-18T23:17:01.981Z,28.40
2023-07-18T23:19:03.901Z,28.50
2023-07-18T23:21:05.685Z,28.50
2023-07-18T23:23:07.582Z,28.50
2023-07-18T23:25:09.574Z,28.50
2023-07-18T23:27:11.374Z,28.50
2023-07-18T23:29:13.239Z,28.40
2023-07-18T23:31:15.310Z,28.40
2023-07-18T23:33:17.206Z,28.40
2023-07-18T23:35:19.024Z,28.50
2023-07-18T23:37:20.828Z,28.40
2023-07-18T23:39:22.698Z,28.40
2023-07-18T23:41:24.510Z,28.40
2023-07-18T23:43:26.376Z,28.40
2023-07-18T23:45:28.146Z,28.50
2023-07-18T23:47:30.010Z,28.40
2023-07-18T23:49:31.859Z,28.40
2023-07-18T23:51:33.695Z,28.40
2023-07-18T23:53:35.460Z,28.40
2023-07-18T23:55:41.826Z,28.40
2023-07-18T23:57:43.577Z,28.40
2023-07-18T23:59:45.465Z,28.40
